Terminal Aerodrome Forecast
Issued by NWS Green Bay, WI

Home | Current Version | Previous Version | Graphics & Text | Print | Product List | Glossary On
Versions: 1 2 3 4 5 6 7 8 9 10 11 12 13 14 15 16 17 18 19 20 21 22 23 24 25 26 27 28 29 30 31 32 33 34 35 36 37 38 39 40 41 42 43 44 45 46 47 48 49 50
000
FTUS43 KGRB 221708 AAD
TAFGRB
TAF AMD
KGRB 221708Z 2217/2312 23005KT 1/2SM -DZ FG BKN002
      TEMPO 2218/2221 2SM -DZ BR BKN003
     FM222100 25003KT 2SM BR BKN003
     FM222300 29003KT 1SM BR OVC003
     FM230300 VRB03KT 1/4SM FG OVC003=

USA.gov is the U.S. government's official web portal to all federal, state and local government web resources and services.